Owosso, MI

3:02 PM EDT on September 26, 2017 (GMT -0400)
Owosso

Weather History for KRNP - November, 2012

Change the Weather History Date:

Monday, November 12, 2012

  Actual Average (KFNT) Record (KFNT)
Temperature  
Mean Temperature 47 °F -  
Max Temperature 62 °F 44 °F 68 °F (1964)
Min Temperature 32 °F 29 °F 15 °F (1997)
Degree Days  
Heating Degree Days 18    
Moisture  
Dew Point 37 °F    
Average Humidity 80    
Maximum Humidity 99    
Minimum Humidity 40    
Precipitation  
Precipitation 0.00 in - - ()
Sea Level Pressure  
Sea Level Pressure 30.00 in    
Wind  
Wind Speed 13 mph (WSW)    
Max Wind Speed 22 mph    
Max Gust Speed 29 mph    
Visibility 9 miles    
Events Rain , Snow    
Averages and records for this station are not official NWS values.
T = Trace of Precipitation, MM = Missing Value Source: NWS Daily Summary

Daily Weather History Graph

Daily Weather History Graph

Search for Another Location

Airport or City:

Trip Planner

Search our weather history database for the weather conditions in past years. The results will help you decide how hot, cold, wet, or windy it might be!

Date:

Astronomy

Nov. 12, 2012 Rise Set
Actual Time 7:25 AM EST 5:15 PM EST
Civil Twilight 6:55 AM EST 5:45 PM EST
Nautical Twilight 6:21 AM EST 6:19 PM EST
Astronomical Twilight 5:47 AM EST 6:53 PM EST
Moon 5:48 AM EST (11/12) 4:20 PM EST (11/12)
Length of Visible Light 10h 50m
Length of Day
9h 49m
Waning Crescent, 2% of the Moon is Illuminated
Nov 12
Waning Crescent
Nov 13
New
Nov 20
First Quarter
Nov 28
Full
Dec 6
Last Quarter

Hourly Weather History & Observations

Time (EST) Temp. Windchill Dew Point Humidity Pressure Visibility Wind Dir Wind Speed Gust Speed Precip Events Conditions
12:15 AM 62.6 °F - 38.1 °F 40% 29.89 in 10.0 mi South 15.0 mph 25.3 mph N/A   Overcast
12:35 AM 62.6 °F - 39.0 °F 42% 29.89 in 10.0 mi South 15.0 mph 23.0 mph N/A   Overcast
1:15 AM 61.9 °F - 41.4 °F 47% 29.88 in 10.0 mi South 15.0 mph 26.5 mph N/A   Overcast
1:55 AM 62.2 °F - 42.6 °F 49% 29.87 in 10.0 mi South 12.7 mph 23.0 mph N/A   Overcast
2:15 AM 62.6 °F - 43.2 °F 49% 29.87 in 10.0 mi South 16.1 mph 23.0 mph N/A   Overcast
2:35 AM 62.6 °F - 43.5 °F 50% 29.87 in 10.0 mi South 11.5 mph 24.2 mph N/A   Overcast
2:55 AM 62.1 °F - 44.1 °F 52% 29.87 in 10.0 mi South 10.4 mph 16.1 mph N/A   Overcast
3:15 AM 60.8 °F - 46.8 °F 60% 29.87 in 10.0 mi South 13.8 mph 25.3 mph N/A   Drizzle
3:35 AM 58.1 °F - 50.0 °F 74% 29.88 in 10.0 mi SSW 15.0 mph 20.7 mph N/A   Drizzle
4:15 AM 54.1 °F - 52.3 °F 94% 29.88 in 7.0 mi WSW 6.9 mph - N/A Rain Rain
4:35 AM 53.8 °F - 52.9 °F 97% 29.88 in 7.0 mi SSW 5.8 mph - N/A Rain Light Rain
4:55 AM 53.6 °F - 52.9 °F 97% 29.88 in 7.0 mi SSW 4.6 mph - N/A Rain Rain
5:15 AM 53.6 °F - 53.1 °F 98% 29.87 in 10.0 mi South 5.8 mph - N/A Rain Light Rain
5:35 AM 53.6 °F - 53.1 °F 98% 29.88 in 10.0 mi SSW 6.9 mph - N/A Rain Light Rain
5:55 AM 53.6 °F - 53.1 °F 98% 29.88 in 7.0 mi SSW 6.9 mph - N/A Rain Rain
6:15 AM 53.2 °F - 52.9 °F 99% 29.88 in 7.0 mi SSW 6.9 mph - N/A Rain Light Rain
6:35 AM 53.1 °F - 52.7 °F 99% 29.87 in 10.0 mi SSW 5.8 mph - N/A Rain Light Rain
6:55 AM 49.1 °F - 48.0 °F 96% 29.89 in 10.0 mi West 18.4 mph 25.3 mph N/A Rain Light Rain
7:35 AM 47.1 °F - 46.2 °F 97% 29.91 in 7.0 mi West 15.0 mph 20.7 mph N/A   Drizzle
7:54 AM 46.6 °F - 45.5 °F 96% 29.90 in 7.0 mi WSW 9.2 mph 18.4 mph N/A Rain Rain
8:15 AM 46.4 °F 41.5 °F 45.5 °F 97% 29.91 in 7.0 mi WSW 10.4 mph - N/A Rain Rain
8:35 AM 45.7 °F 40.2 °F 44.8 °F 97% 29.92 in 7.0 mi West 11.5 mph - N/A   Drizzle
8:55 AM 45.0 °F 39.3 °F 43.9 °F 96% 29.93 in 10.0 mi WSW 11.5 mph - N/A   Light Drizzle
9:15 AM 44.2 °F 37.6 °F 43.0 °F 95% 29.93 in 7.0 mi West 13.8 mph 19.6 mph N/A   Light Drizzle
9:35 AM 43.3 °F 36.5 °F 41.7 °F 94% 29.93 in 10.0 mi West 13.8 mph - N/A   Overcast
9:55 AM 43.3 °F 37.2 °F 41.9 °F 95% 29.94 in 7.0 mi West 11.5 mph - N/A   Overcast
10:15 AM 43.2 °F 35.6 °F 41.9 °F 95% 29.96 in 4.0 mi WSW 16.1 mph 19.6 mph N/A   Overcast
10:55 AM 41.2 °F 33.0 °F 40.1 °F 96% 29.97 in 7.0 mi WSW 16.1 mph 23.0 mph N/A   Overcast
11:15 AM 40.3 °F 31.9 °F 38.5 °F 93% 29.98 in 5.0 mi WSW 16.1 mph 21.9 mph N/A   Overcast
11:34 AM 39.6 °F 31.3 °F 37.6 °F 93% 29.99 in 10.0 mi WSW 15.0 mph 25.3 mph N/A   Overcast
11:55 AM 39.7 °F 31.2 °F 38.1 °F 94% 29.99 in 10.0 mi SW 16.1 mph 23.0 mph N/A   Overcast
12:15 PM 39.6 °F 32.1 °F 36.5 °F 89% 29.98 in 10.0 mi WSW 12.7 mph 23.0 mph N/A   Overcast
12:35 PM 40.1 °F 31.6 °F 36.1 °F 86% 29.97 in 10.0 mi WSW 16.1 mph 21.9 mph N/A   Overcast
12:55 PM 38.5 °F 28.6 °F 34.5 °F 86% 29.99 in 10.0 mi WSW 19.6 mph 27.6 mph N/A   Overcast
1:35 PM 38.1 °F 29.5 °F 33.6 °F 84% 29.99 in 10.0 mi West 15.0 mph 20.7 mph N/A   Overcast
1:55 PM 38.7 °F 30.1 °F 33.6 °F 82% 29.99 in 10.0 mi WSW 15.0 mph 21.9 mph N/A   Overcast
2:15 PM 39.2 °F 30.8 °F 33.3 °F 79% 30.00 in 10.0 mi West 15.0 mph 20.7 mph N/A   Overcast
2:35 PM 38.8 °F 29.4 °F 33.6 °F 82% 30.00 in 10.0 mi WSW 18.4 mph 21.9 mph N/A   Overcast
2:55 PM 38.3 °F 29.7 °F 32.4 °F 79% 30.01 in 10.0 mi WSW 15.0 mph 20.7 mph N/A   Overcast
3:15 PM 38.3 °F 29.7 °F 31.6 °F 77% 30.01 in 10.0 mi WSW 15.0 mph 21.9 mph N/A   Overcast
3:35 PM 38.3 °F 31.4 °F 31.1 °F 75% 30.02 in 10.0 mi WSW 10.4 mph 20.7 mph N/A   Overcast
3:55 PM 38.1 °F 28.8 °F 30.0 °F 73% 30.03 in 10.0 mi WSW 17.3 mph 23.0 mph N/A   Overcast
4:15 PM 37.8 °F 27.1 °F 28.4 °F 69% 30.04 in 10.0 mi West 21.9 mph 27.6 mph N/A   Overcast
4:35 PM 37.8 °F 29.0 °F 27.7 °F 67% 30.04 in 10.0 mi WSW 15.0 mph 24.2 mph N/A   Overcast
4:55 PM 36.7 °F 28.0 °F 27.5 °F 69% 30.05 in 10.0 mi West 13.8 mph 17.3 mph N/A   Mostly Cloudy
5:15 PM 36.9 °F 27.8 °F 25.0 °F 62% 30.07 in 10.0 mi WSW 15.0 mph 28.8 mph N/A   Overcast
5:35 PM 36.5 °F 26.7 °F 25.9 °F 65% 30.08 in 10.0 mi WSW 17.3 mph 26.5 mph N/A   Overcast
5:55 PM 36.3 °F 25.2 °F 25.9 °F 66% 30.09 in 10.0 mi West 21.9 mph 26.5 mph N/A   Overcast
6:15 PM 35.8 °F 27.3 °F 25.0 °F 65% 30.10 in 10.0 mi WSW 12.7 mph 21.9 mph N/A   Overcast
6:35 PM 35.6 °F 26.6 °F 25.2 °F 66% 30.11 in 10.0 mi WSW 13.8 mph 19.6 mph N/A   Overcast
6:55 PM 35.6 °F 25.2 °F 25.7 °F 67% 30.12 in 10.0 mi WSW 18.4 mph - N/A   Overcast
7:15 PM 35.2 °F 24.7 °F 25.7 °F 68% 30.13 in 10.0 mi WSW 18.4 mph - N/A   Overcast
7:55 PM 35.6 °F 27.1 °F 25.0 °F 65% 30.13 in 10.0 mi WSW 12.7 mph 19.6 mph N/A   Overcast
8:15 PM 35.2 °F 26.6 °F 26.2 °F 70% 30.14 in 10.0 mi West 12.7 mph 18.4 mph N/A   Overcast
8:35 PM 35.1 °F 30.1 °F 27.0 °F 72% 30.14 in 10.0 mi WSW 5.8 mph - N/A   Light Drizzle
8:55 PM 35.1 °F 27.9 °F 27.1 °F 73% 30.15 in 10.0 mi WSW 9.2 mph 18.4 mph N/A Snow Light Snow
9:15 PM 34.9 °F 24.9 °F 27.7 °F 75% 30.16 in 10.0 mi WSW 16.1 mph 23.0 mph N/A Snow Light Snow
9:35 PM 34.7 °F 25.9 °F 28.4 °F 78% 30.17 in 10.0 mi WSW 12.7 mph 19.6 mph N/A   Overcast
9:55 PM 34.7 °F 26.4 °F 28.9 °F 79% 30.17 in 10.0 mi WSW 11.5 mph 18.4 mph N/A Snow Light Snow
10:15 PM 34.7 °F 25.5 °F 28.8 °F 79% 30.18 in 10.0 mi WSW 13.8 mph 21.9 mph N/A Snow Light Snow
10:35 PM 34.2 °F 24.4 °F 29.3 °F 82% 30.19 in 7.0 mi WSW 15.0 mph - N/A Snow Light Snow
10:55 PM 33.6 °F 23.3 °F 30.0 °F 87% 30.21 in 4.0 mi WSW 16.1 mph 21.9 mph N/A Snow Light Snow
11:15 PM 32.5 °F 24.2 °F 31.1 °F 94% 30.22 in 4.0 mi WSW 10.4 mph 17.3 mph N/A Snow Light Snow
11:35 PM 32.5 °F 23.2 °F 30.9 °F 94% 30.23 in 10.0 mi WSW 12.7 mph - N/A   Overcast
11:55 PM 32.9 °F 25.3 °F 30.6 °F 91% 30.23 in 10.0 mi West 9.2 mph - N/A   Overcast